sensor_id;sensor_type;location;lat;lon;timestamp;P1;durP1;ratioP1;P2;durP2;ratioP2
25922;SDS011;13725;51.170;4.442;2022-07-23T00:03:04;10.15;;;5.57;;
25922;SDS011;13725;51.170;4.442;2022-07-23T00:09:16;14.23;;;6.70;;
25922;SDS011;13725;51.170;4.442;2022-07-23T00:15:30;8.85;;;5.78;;
25922;SDS011;13725;51.170;4.442;2022-07-23T00:21:43;8.25;;;5.28;;
25922;SDS011;13725;51.170;4.442;2022-07-23T00:28:00;11.38;;;6.07;;
25922;SDS011;13725;51.170;4.442;2022-07-23T00:34:14;10.43;;;5.70;;
25922;SDS011;13725;51.170;4.442;2022-07-23T00:40:28;9.43;;;6.05;;
25922;SDS011;13725;51.170;4.442;2022-07-23T00:46:45;16.95;;;6.25;;
25922;SDS011;13725;51.170;4.442;2022-07-23T00:53:00;7.97;;;5.60;;
25922;SDS011;13725;51.170;4.442;2022-07-23T00:59:15;9.82;;;5.68;;
25922;SDS011;13725;51.170;4.442;2022-07-23T01:05:28;13.65;;;6.05;;
25922;SDS011;13725;51.170;4.442;2022-07-23T01:11:42;12.85;;;6.28;;
25922;SDS011;13725;51.170;4.442;2022-07-23T01:17:56;8.82;;;5.55;;
25922;SDS011;13725;51.170;4.442;2022-07-23T01:24:10;12.82;;;6.57;;
25922;SDS011;13725;51.170;4.442;2022-07-23T01:30:31;10.80;;;6.00;;
25922;SDS011;13725;51.170;4.442;2022-07-23T01:36:46;14.82;;;6.70;;
25922;SDS011;13725;51.170;4.442;2022-07-23T01:43:02;13.38;;;6.85;;
25922;SDS011;13725;51.170;4.442;2022-07-23T01:49:17;10.95;;;6.28;;
25922;SDS011;13725;51.170;4.442;2022-07-23T01:56:02;9.98;;;6.22;;
25922;SDS011;13725;51.170;4.442;2022-07-23T02:02:17;17.77;;;7.15;;
25922;SDS011;13725;51.170;4.442;2022-07-23T02:08:30;13.23;;;6.68;;
25922;SDS011;13725;51.170;4.442;2022-07-23T02:14:44;11.85;;;6.65;;
25922;SDS011;13725;51.170;4.442;2022-07-23T02:20:57;14.27;;;7.07;;
25922;SDS011;13725;51.170;4.442;2022-07-23T02:27:11;14.07;;;7.80;;
25922;SDS011;13725;51.170;4.442;2022-07-23T02:33:25;12.07;;;7.00;;
25922;SDS011;13725;51.170;4.442;2022-07-23T02:39:39;13.65;;;7.80;;
25922;SDS011;13725;51.170;4.442;2022-07-23T02:45:53;10.18;;;6.05;;
25922;SDS011;13725;51.170;4.442;2022-07-23T02:52:07;10.98;;;6.88;;
25922;SDS011;13725;51.170;4.442;2022-07-23T02:58:23;10.00;;;6.70;;
25922;SDS011;13725;51.170;4.442;2022-07-23T03:04:38;11.77;;;7.30;;
25922;SDS011;13725;51.170;4.442;2022-07-23T03:10:50;12.57;;;8.07;;
25922;SDS011;13725;51.170;4.442;2022-07-23T03:17:04;12.63;;;6.45;;
25922;SDS011;13725;51.170;4.442;2022-07-23T03:23:17;11.43;;;6.70;;
25922;SDS011;13725;51.170;4.442;2022-07-23T03:29:30;13.23;;;7.32;;
25922;SDS011;13725;51.170;4.442;2022-07-23T03:35:46;15.30;;;7.80;;
25922;SDS011;13725;51.170;4.442;2022-07-23T03:42:12;12.70;;;6.63;;
25922;SDS011;13725;51.170;4.442;2022-07-23T03:48:25;16.52;;;7.18;;
25922;SDS011;13725;51.170;4.442;2022-07-23T03:54:38;11.32;;;6.88;;
25922;SDS011;13725;51.170;4.442;2022-07-23T04:01:05;10.48;;;7.20;;
25922;SDS011;13725;51.170;4.442;2022-07-23T04:11:06;10.52;;;6.13;;
25922;SDS011;13725;51.170;4.442;2022-07-23T04:17:19;12.15;;;7.38;;
25922;SDS011;13725;51.170;4.442;2022-07-23T04:23:39;13.30;;;7.07;;
25922;SDS011;13725;51.170;4.442;2022-07-23T04:29:53;12.05;;;7.20;;
25922;SDS011;13725;51.170;4.442;2022-07-23T04:39:53;11.75;;;6.95;;
25922;SDS011;13725;51.170;4.442;2022-07-23T04:46:08;11.93;;;7.45;;
25922;SDS011;13725;51.170;4.442;2022-07-23T04:52:30;13.60;;;7.47;;
25922;SDS011;13725;51.170;4.442;2022-07-23T04:58:44;12.70;;;6.95;;
25922;SDS011;13725;51.170;4.442;2022-07-23T05:04:58;15.23;;;7.50;;
25922;SDS011;13725;51.170;4.442;2022-07-23T05:11:13;18.17;;;6.88;;
25922;SDS011;13725;51.170;4.442;2022-07-23T05:17:27;11.02;;;7.43;;
25922;SDS011;13725;51.170;4.442;2022-07-23T05:23:40;12.57;;;7.15;;
25922;SDS011;13725;51.170;4.442;2022-07-23T05:29:54;11.10;;;7.30;;
25922;SDS011;13725;51.170;4.442;2022-07-23T05:36:08;11.88;;;6.68;;
25922;SDS011;13725;51.170;4.442;2022-07-23T05:42:30;11.85;;;6.47;;
25922;SDS011;13725;51.170;4.442;2022-07-23T05:52:31;12.32;;;7.03;;
25922;SDS011;13725;51.170;4.442;2022-07-23T05:59:09;9.70;;;6.38;;
25922;SDS011;13725;51.170;4.442;2022-07-23T06:05:25;13.55;;;6.07;;
25922;SDS011;13725;51.170;4.442;2022-07-23T06:11:42;13.05;;;6.75;;
25922;SDS011;13725;51.170;4.442;2022-07-23T06:18:02;6.82;;;4.97;;
25922;SDS011;13725;51.170;4.442;2022-07-23T06:24:15;7.78;;;4.28;;
25922;SDS011;13725;51.170;4.442;2022-07-23T06:30:29;10.63;;;4.70;;
25922;SDS011;13725;51.170;4.442;2022-07-23T06:40:31;4.82;;;3.70;;
25922;SDS011;13725;51.170;4.442;2022-07-23T06:46:45;8.63;;;3.80;;
25922;SDS011;13725;51.170;4.442;2022-07-23T06:52:59;4.55;;;3.35;;
25922;SDS011;13725;51.170;4.442;2022-07-23T06:59:13;4.38;;;3.30;;
25922;SDS011;13725;51.170;4.442;2022-07-23T07:05:26;4.55;;;3.38;;
25922;SDS011;13725;51.170;4.442;2022-07-23T07:11:40;5.47;;;3.13;;
25922;SDS011;13725;51.170;4.442;2022-07-23T07:17:53;4.95;;;3.10;;
25922;SDS011;13725;51.170;4.442;2022-07-23T07:24:06;5.10;;;3.40;;
25922;SDS011;13725;51.170;4.442;2022-07-23T07:30:19;6.43;;;3.50;;
25922;SDS011;13725;51.170;4.442;2022-07-23T07:40:20;4.60;;;3.50;;
25922;SDS011;13725;51.170;4.442;2022-07-23T07:46:33;7.72;;;3.05;;
25922;SDS011;13725;51.170;4.442;2022-07-23T07:52:46;5.78;;;3.10;;
25922;SDS011;13725;51.170;4.442;2022-07-23T07:58:59;5.15;;;3.13;;
25922;SDS011;13725;51.170;4.442;2022-07-23T08:05:14;8.25;;;3.67;;
25922;SDS011;13725;51.170;4.442;2022-07-23T08:11:31;4.63;;;3.30;;
25922;SDS011;13725;51.170;4.442;2022-07-23T08:17:44;5.03;;;3.35;;
25922;SDS011;13725;51.170;4.442;2022-07-23T08:23:59;4.90;;;3.20;;
25922;SDS011;13725;51.170;4.442;2022-07-23T08:30:13;4.25;;;2.78;;
25922;SDS011;13725;51.170;4.442;2022-07-23T08:36:26;4.22;;;3.15;;
25922;SDS011;13725;51.170;4.442;2022-07-23T08:42:40;4.38;;;2.90;;
25922;SDS011;13725;51.170;4.442;2022-07-23T08:48:54;4.28;;;3.75;;
25922;SDS011;13725;51.170;4.442;2022-07-23T08:55:08;5.00;;;3.20;;
25922;SDS011;13725;51.170;4.442;2022-07-23T09:01:22;3.95;;;2.15;;
25922;SDS011;13725;51.170;4.442;2022-07-23T09:07:36;2.08;;;1.30;;
25922;SDS011;13725;51.170;4.442;2022-07-23T09:13:51;5.50;;;2.30;;
25922;SDS011;13725;51.170;4.442;2022-07-23T09:20:13;4.28;;;2.88;;
25922;SDS011;13725;51.170;4.442;2022-07-23T09:26:32;7.68;;;3.10;;
25922;SDS011;13725;51.170;4.442;2022-07-23T09:43:31;2.38;;;2.13;;
25922;SDS011;13725;51.170;4.442;2022-07-23T09:53:31;3.10;;;1.85;;
25922;SDS011;13725;51.170;4.442;2022-07-23T09:59:44;3.45;;;1.88;;
25922;SDS011;13725;51.170;4.442;2022-07-23T10:06:01;4.07;;;2.10;;
25922;SDS011;13725;51.170;4.442;2022-07-23T10:12:15;2.45;;;1.95;;
25922;SDS011;13725;51.170;4.442;2022-07-23T10:18:48;3.53;;;2.10;;
25922;SDS011;13725;51.170;4.442;2022-07-23T10:42:09;3.80;;;1.40;;
25922;SDS011;13725;51.170;4.442;2022-07-23T10:48:24;2.45;;;1.30;;
25922;SDS011;13725;51.170;4.442;2022-07-23T11:00:55;5.03;;;1.23;;
25922;SDS011;13725;51.170;4.442;2022-07-23T11:07:09;2.65;;;1.20;;
25922;SDS011;13725;51.170;4.442;2022-07-23T11:13:25;2.58;;;1.20;;
25922;SDS011;13725;51.170;4.442;2022-07-23T11:23:34;0.90;;;0.70;;
25922;SDS011;13725;51.170;4.442;2022-07-23T11:41:01;0.88;;;0.88;;
25922;SDS011;13725;51.170;4.442;2022-07-23T11:47:14;1.63;;;0.93;;
25922;SDS011;13725;51.170;4.442;2022-07-23T11:53:28;1.65;;;0.95;;
25922;SDS011;13725;51.170;4.442;2022-07-23T11:59:46;1.48;;;0.88;;
25922;SDS011;13725;51.170;4.442;2022-07-23T12:06:08;2.80;;;0.88;;
25922;SDS011;13725;51.170;4.442;2022-07-23T12:12:21;2.15;;;0.85;;
25922;SDS011;13725;51.170;4.442;2022-07-23T12:18:35;0.80;;;0.80;;
25922;SDS011;13725;51.170;4.442;2022-07-23T12:24:56;2.03;;;0.98;;
25922;SDS011;13725;51.170;4.442;2022-07-23T12:31:11;1.30;;;1.20;;
25922;SDS011;13725;51.170;4.442;2022-07-23T12:37:26;0.75;;;0.70;;
25922;SDS011;13725;51.170;4.442;2022-07-23T12:43:32;1.48;;;0.90;;
25922;SDS011;13725;51.170;4.442;2022-07-23T12:49:48;2.72;;;0.90;;
25922;SDS011;13725;51.170;4.442;2022-07-23T12:56:13;1.33;;;0.88;;
25922;SDS011;13725;51.170;4.442;2022-07-23T13:02:28;1.77;;;1.20;;
25922;SDS011;13725;51.170;4.442;2022-07-23T13:08:59;1.20;;;1.02;;
25922;SDS011;13725;51.170;4.442;2022-07-23T13:15:13;0.90;;;0.90;;
25922;SDS011;13725;51.170;4.442;2022-07-23T13:21:26;1.25;;;1.05;;
25922;SDS011;13725;51.170;4.442;2022-07-23T13:27:41;1.40;;;1.30;;
25922;SDS011;13725;51.170;4.442;2022-07-23T13:33:54;1.42;;;1.15;;
25922;SDS011;13725;51.170;4.442;2022-07-23T13:40:07;2.75;;;1.20;;
25922;SDS011;13725;51.170;4.442;2022-07-23T13:46:21;2.22;;;1.42;;
25922;SDS011;13725;51.170;4.442;2022-07-23T13:56:21;2.45;;;1.50;;
25922;SDS011;13725;51.170;4.442;2022-07-23T14:02:35;1.73;;;1.48;;
25922;SDS011;13725;51.170;4.442;2022-07-23T14:08:49;2.92;;;1.35;;
25922;SDS011;13725;51.170;4.442;2022-07-23T14:15:03;2.45;;;1.67;;
25922;SDS011;13725;51.170;4.442;2022-07-23T14:21:18;2.83;;;1.65;;
25922;SDS011;13725;51.170;4.442;2022-07-23T14:27:31;3.22;;;1.90;;
25922;SDS011;13725;51.170;4.442;2022-07-23T14:33:45;2.60;;;1.48;;
25922;SDS011;13725;51.170;4.442;2022-07-23T14:39:59;2.50;;;1.88;;
25922;SDS011;13725;51.170;4.442;2022-07-23T14:46:13;2.67;;;2.10;;
25922;SDS011;13725;51.170;4.442;2022-07-23T14:52:27;2.78;;;2.00;;
25922;SDS011;13725;51.170;4.442;2022-07-23T14:58:41;2.88;;;2.20;;
25922;SDS011;13725;51.170;4.442;2022-07-23T15:04:55;5.22;;;2.30;;
25922;SDS011;13725;51.170;4.442;2022-07-23T15:11:10;3.63;;;2.50;;
25922;SDS011;13725;51.170;4.442;2022-07-23T15:17:24;4.75;;;2.38;;
25922;SDS011;13725;51.170;4.442;2022-07-23T15:23:37;4.57;;;2.45;;
25922;SDS011;13725;51.170;4.442;2022-07-23T15:29:52;4.82;;;2.92;;
25922;SDS011;13725;51.170;4.442;2022-07-23T15:36:05;2.63;;;2.40;;
25922;SDS011;13725;51.170;4.442;2022-07-23T15:42:19;3.10;;;2.85;;
25922;SDS011;13725;51.170;4.442;2022-07-23T15:48:35;4.35;;;2.70;;
25922;SDS011;13725;51.170;4.442;2022-07-23T15:54:50;3.03;;;2.70;;
25922;SDS011;13725;51.170;4.442;2022-07-23T16:01:03;4.05;;;2.75;;
25922;SDS011;13725;51.170;4.442;2022-07-23T16:07:19;4.15;;;2.28;;
25922;SDS011;13725;51.170;4.442;2022-07-23T16:13:33;5.55;;;2.53;;
25922;SDS011;13725;51.170;4.442;2022-07-23T16:19:46;3.42;;;2.72;;
25922;SDS011;13725;51.170;4.442;2022-07-23T16:25:59;5.53;;;2.72;;
25922;SDS011;13725;51.170;4.442;2022-07-23T16:32:13;4.95;;;2.80;;
25922;SDS011;13725;51.170;4.442;2022-07-23T16:38:26;5.45;;;2.85;;
25922;SDS011;13725;51.170;4.442;2022-07-23T16:44:40;3.50;;;2.92;;
25922;SDS011;13725;51.170;4.442;2022-07-23T16:50:54;4.78;;;2.63;;
25922;SDS011;13725;51.170;4.442;2022-07-23T16:57:08;3.90;;;2.85;;
25922;SDS011;13725;51.170;4.442;2022-07-23T17:03:22;5.88;;;3.45;;
25922;SDS011;13725;51.170;4.442;2022-07-23T17:09:36;6.05;;;3.00;;
25922;SDS011;13725;51.170;4.442;2022-07-23T17:15:51;4.22;;;3.05;;
25922;SDS011;13725;51.170;4.442;2022-07-23T17:22:06;5.68;;;3.10;;
25922;SDS011;13725;51.170;4.442;2022-07-23T17:28:19;4.72;;;2.78;;
25922;SDS011;13725;51.170;4.442;2022-07-23T17:34:33;4.10;;;2.90;;
25922;SDS011;13725;51.170;4.442;2022-07-23T17:40:47;4.05;;;3.10;;
25922;SDS011;13725;51.170;4.442;2022-07-23T17:47:01;3.45;;;2.67;;
25922;SDS011;13725;51.170;4.442;2022-07-23T17:53:15;5.57;;;3.50;;
25922;SDS011;13725;51.170;4.442;2022-07-23T17:59:28;6.78;;;3.25;;
25922;SDS011;13725;51.170;4.442;2022-07-23T18:05:42;3.65;;;2.85;;
25922;SDS011;13725;51.170;4.442;2022-07-23T18:11:57;7.03;;;3.25;;
25922;SDS011;13725;51.170;4.442;2022-07-23T18:18:10;4.43;;;3.10;;
25922;SDS011;13725;51.170;4.442;2022-07-23T18:24:24;4.68;;;2.90;;
25922;SDS011;13725;51.170;4.442;2022-07-23T18:34:25;4.32;;;3.75;;
25922;SDS011;13725;51.170;4.442;2022-07-23T18:40:38;4.55;;;3.45;;
25922;SDS011;13725;51.170;4.442;2022-07-23T18:46:52;8.23;;;3.38;;
25922;SDS011;13725;51.170;4.442;2022-07-23T18:53:05;5.88;;;3.00;;
25922;SDS011;13725;51.170;4.442;2022-07-23T18:59:19;3.40;;;3.10;;
25922;SDS011;13725;51.170;4.442;2022-07-23T19:05:32;4.22;;;3.10;;
25922;SDS011;13725;51.170;4.442;2022-07-23T19:11:47;6.47;;;3.22;;
25922;SDS011;13725;51.170;4.442;2022-07-23T19:18:00;6.43;;;3.65;;
25922;SDS011;13725;51.170;4.442;2022-07-23T19:24:14;5.70;;;3.17;;
25922;SDS011;13725;51.170;4.442;2022-07-23T19:34:15;7.25;;;3.40;;
25922;SDS011;13725;51.170;4.442;2022-07-23T19:40:28;4.80;;;3.42;;
25922;SDS011;13725;51.170;4.442;2022-07-23T19:46:42;5.82;;;3.72;;
25922;SDS011;13725;51.170;4.442;2022-07-23T19:52:56;4.57;;;3.42;;
25922;SDS011;13725;51.170;4.442;2022-07-23T19:59:10;4.65;;;3.38;;
25922;SDS011;13725;51.170;4.442;2022-07-23T20:05:24;5.22;;;3.92;;
25922;SDS011;13725;51.170;4.442;2022-07-23T20:11:37;7.43;;;3.70;;
25922;SDS011;13725;51.170;4.442;2022-07-23T20:17:50;7.93;;;4.25;;
25922;SDS011;13725;51.170;4.442;2022-07-23T20:24:03;4.88;;;4.00;;
25922;SDS011;13725;51.170;4.442;2022-07-23T20:30:18;9.98;;;4.45;;
25922;SDS011;13725;51.170;4.442;2022-07-23T20:36:31;8.15;;;4.82;;
25922;SDS011;13725;51.170;4.442;2022-07-23T20:42:45;9.18;;;5.30;;
25922;SDS011;13725;51.170;4.442;2022-07-23T20:49:00;10.07;;;5.85;;
25922;SDS011;13725;51.170;4.442;2022-07-23T20:55:14;8.90;;;5.85;;
25922;SDS011;13725;51.170;4.442;2022-07-23T21:05:14;10.02;;;6.43;;
25922;SDS011;13725;51.170;4.442;2022-07-23T21:11:27;8.10;;;6.07;;
25922;SDS011;13725;51.170;4.442;2022-07-23T21:17:40;8.55;;;6.65;;
25922;SDS011;13725;51.170;4.442;2022-07-23T21:23:53;13.80;;;7.82;;
25922;SDS011;13725;51.170;4.442;2022-07-23T21:30:07;13.80;;;9.15;;
25922;SDS011;13725;51.170;4.442;2022-07-23T21:36:21;19.80;;;10.90;;
25922;SDS011;13725;51.170;4.442;2022-07-23T21:42:35;15.38;;;10.35;;
25922;SDS011;13725;51.170;4.442;2022-07-23T21:48:47;15.93;;;10.45;;
25922;SDS011;13725;51.170;4.442;2022-07-23T21:55:02;19.08;;;10.25;;
25922;SDS011;13725;51.170;4.442;2022-07-23T22:05:04;12.32;;;9.68;;
25922;SDS011;13725;51.170;4.442;2022-07-23T22:11:18;16.92;;;9.48;;
25922;SDS011;13725;51.170;4.442;2022-07-23T22:17:31;15.65;;;10.93;;
25922;SDS011;13725;51.170;4.442;2022-07-23T22:23:45;15.02;;;10.85;;
25922;SDS011;13725;51.170;4.442;2022-07-23T22:29:58;17.25;;;12.13;;
25922;SDS011;13725;51.170;4.442;2022-07-23T22:36:11;24.85;;;15.38;;
25922;SDS011;13725;51.170;4.442;2022-07-23T22:42:38;24.55;;;15.90;;
25922;SDS011;13725;51.170;4.442;2022-07-23T22:48:51;26.90;;;17.88;;
25922;SDS011;13725;51.170;4.442;2022-07-23T22:55:05;29.55;;;18.95;;
25922;SDS011;13725;51.170;4.442;2022-07-23T23:05:05;43.55;;;24.00;;
25922;SDS011;13725;51.170;4.442;2022-07-23T23:11:20;42.40;;;24.00;;
25922;SDS011;13725;51.170;4.442;2022-07-23T23:17:33;48.45;;;26.20;;
25922;SDS011;13725;51.170;4.442;2022-07-23T23:45:33;43.00;;;23.45;;
25922;SDS011;13725;51.170;4.442;2022-07-23T23:51:46;40.75;;;22.45;;
25922;SDS011;13725;51.170;4.442;2022-07-23T23:58:00;38.80;;;21.75;;
